Flight Track Log - Related Links

Times and Time Zones

All times are in EDT time to prevent confusion due to time zone crossing. See the GGN7280 flight status page for this flight to view local times or setup timezone preferences in your user account.

Time Position Orientation Groundspeed Altitude Reporting Facility
EDT Latitude Longitude Course Direction KTS MPH feet Rate Location/Type
Wed 09:32:28 AM 43.6667 -79.5833 90° East 90 104 700  Level Toronto Center
Wed 09:33:28 AM 43.6667 -79.5333 90° East 180 207 2,300 1,650 Climbing Toronto Center
Wed 09:34:28 AM 43.6667 -79.4667 90° East 190 219 4,000 1,550 Climbing Toronto Center
Wed 09:35:28 AM 43.6167 -79.4333 154° Southeast 200 230 5,400 1,300 Climbing Toronto Center
Wed 09:36:28 AM 43.5667 -79.3833 144° Southeast 200 230 6,600 800 Climbing Toronto Center
Wed 09:37:28 AM 43.5333 -79.3167 125° Southeast 210 242 7,000 700 Climbing Toronto Center
Wed 09:38:28 AM 43.5167 -79.2167 103° East 220 253 8,000 650 Climbing Toronto Center
Wed 09:39:28 AM 43.5000 -79.1500 109° East 230 265 8,300 500 Climbing Toronto Center
Wed 09:40:28 AM 43.4667 -79.0667 119° Southeast 230 265 9,000 900 Climbing Toronto Center
Wed 09:41:28 AM 43.4500 -78.9833 105° East 220 253 10,100 1,200 Climbing Toronto Center
Wed 09:42:28 AM 43.4167 -78.9167 125° Southeast 210 242 11,400 1,150 Climbing Toronto Center
Wed 09:43:28 AM 43.4000 -78.8333 105° East 210 242 12,400 1,350 Climbing Toronto Center
Wed 09:44:28 AM 43.3667 -78.7833 133° Southeast 200 230 14,100 1,485 Climbing Toronto Center
Wed 09:45:09 AM 43.3400 -78.7622 150° Southeast 199 229 14,900 1,248 Climbing Cleveland Center
Wed 09:46:09 AM 43.3036 -78.7119 135° Southeast 199 229 16,200 1,450 Climbing Cleveland Center
Wed 09:47:09 AM 43.2672 -78.6444 126° Southeast 199 229 17,800 1,300 Climbing Cleveland Center
Wed 09:48:09 AM 43.2308 -78.5858 130° Southeast 207 238 18,800 550 Climbing Cleveland Center
Wed 09:49:09 AM 43.1986 -78.5269 127° Southeast 226 260 18,900 50 Climbing Cleveland Center
Wed 09:50:09 AM 43.1467 -78.4319 127° Southeast 237 273 18,900  Level Cleveland Center
Wed 09:51:09 AM 43.1078 -78.3536 124° Southeast 251 289 18,900  Level Cleveland Center
Wed 09:52:09 AM 43.0728 -78.2725 121° Southeast 251 289 18,900  Level Cleveland Center
Wed 09:53:09 AM 43.0397 -78.1858 118° Southeast 252 290 18,900  Level Cleveland Center
Wed 09:54:09 AM 43.0069 -78.1131 122° Southeast 252 290 18,900  Level Cleveland Center
Wed 09:55:09 AM 42.9761 -78.0322 118° Southeast 247 284 18,900  Level Cleveland Center
Wed 09:56:09 AM 42.9347 -77.9517 125° Southeast 253 291 18,900  Level Cleveland Center
Wed 09:57:09 AM 42.9053 -77.8564 113° Southeast 248 285 18,900  Level Cleveland Center
Wed 09:58:09 AM 42.9117 -77.7711 84° East 248 285 18,900  Level Cleveland Center
Wed 09:59:09 AM 42.9219 -77.6769 81° East 248 285 18,900  Level Cleveland Center
Wed 10:00:09 AM 42.9150 -77.5781 95° East 253 291 18,900  Level Cleveland Center
Wed 10:01:09 AM 42.9106 -77.4819 94° East 253 291 18,900  Level Cleveland Center
Wed 10:02:09 AM 42.9100 -77.3856 90° East 253 291 18,900  Level Cleveland Center
Wed 10:03:09 AM 42.9094 -77.2892 90° East 253 291 18,900  Level Cleveland Center
Wed 10:04:09 AM 42.9067 -77.1931 92° East 253 291 18,900  Level Cleveland Center
Wed 10:05:51 AM 42.9067 -77.0161 90° East 274 315 18,900  Level Boston Center
Wed 10:06:28 AM 42.8833 -76.9333 111° Southeast 260 299 18,900  Level Toronto Center
Wed 10:07:28 AM 42.8833 -76.8333 90° East 260 299 18,900  Level Toronto Center
Wed 10:07:51 AM 42.8978 -76.8169 40° Northeast 263 303 18,900  Level Boston Center
Wed 10:08:51 AM 42.8972 -76.7203 90° East 263 303 18,900  Level Boston Center
Wed 10:09:51 AM 42.8947 -76.6181 92° East 263 303 18,900  Level Boston Center
Wed 10:10:51 AM 42.8919 -76.5217 92° East 258 297 18,900  Level Boston Center
Wed 10:11:51 AM 42.8894 -76.4222 92° East 258 297 18,900  Level Boston Center
Wed 10:12:51 AM 42.8886 -76.3228 91° East 258 297 18,900  Level Boston Center
Wed 10:13:51 AM 42.8836 -76.2261 94° East 258 297 18,900  Level Boston Center
Wed 10:14:51 AM 42.8742 -76.1264 97° East 258 297 18,900  Level Boston Center
Wed 10:15:51 AM 42.8586 -76.0292 102° East 258 297 18,900  Level Boston Center
Wed 10:16:51 AM 42.8447 -75.9406 102° East 258 297 18,900  Level Boston Center
Wed 10:17:51 AM 42.8289 -75.8433 102° East 258 297 18,900  Level Boston Center
Wed 10:18:51 AM 42.8172 -75.7464 99° East 258 297 18,900  Level Boston Center
Wed 10:19:51 AM 42.8117 -75.6497 94° East 258 297 18,900 -250 Level Boston Center
Wed 10:20:51 AM 42.8061 -75.5506 94° East 258 297 18,400 -550 Descending Boston Center
Wed 10:21:51 AM 42.8044 -75.4514 91° East 258 297 17,800 -650 Descending Boston Center
Wed 10:22:51 AM 42.8050 -75.3494 90° East 258 297 17,100 -700 Descending Boston Center
Wed 10:23:51 AM 42.8158 -75.2508 81° East 253 291 16,400 -800 Descending Boston Center
Wed 10:24:51 AM 42.8308 -75.1553 78° East 253 291 15,500 -900 Descending Boston Center
Wed 10:25:51 AM 42.8475 -75.0597 77° East 259 298 14,600 -950 Descending Boston Center
Wed 10:26:51 AM 42.8664 -74.9614 75° East 259 298 13,600 -900 Descending Boston Center
Wed 10:27:51 AM 42.8853 -74.8658 75° East 259 298 12,800 -1,038 Descending Boston Center
Wed 10:28:35 AM 42.9014 -74.7842 75° East 268 308 11,800 -1,167 Descending Boston Center
Wed 10:29:03 AM 42.9086 -74.7364 78° East 264 304 11,400 -800 Descending Boston Center
Wed 10:29:35 AM 42.9222 -74.6858 70° East 271 312 11,000 -400 Descending Boston Center
Wed 10:30:03 AM 42.9250 -74.6461 85° East 264 304 11,000  Level Boston Center
Wed 10:30:36 AM 42.9367 -74.5869 75° East 265 305 11,000  Level Boston Center
Wed 10:31:15 AM 42.9481 -74.5278 75° East 255 293 11,000  Level Boston Center
Wed 10:31:36 AM 42.9531 -74.4939 79° East 251 289 11,000  Level Boston Center
Wed 10:32:15 AM 42.9558 -74.4431 86° East 250 288 11,000  Level Boston Center
Wed 10:32:31 AM 42.9544 -74.4117 93° East 244 281 11,000 -200 Level Boston Center
Wed 10:33:15 AM 42.9514 -74.3436 93° East 238 274 10,800 -492 Descending Boston Center
Wed 10:33:32 AM 42.9475 -74.3178 102° East 247 284 10,500 -1,000 Descending Boston Center
Wed 10:34:15 AM 42.9444 -74.2553 94° East 243 280 9,800 -1,200 Descending Boston Center
Wed 10:34:32 AM 42.9408 -74.2211 98° East 258 297 9,300 -1,400 Descending Boston Center
Wed 10:35:15 AM 42.9356 -74.1531 96° East 243 280 8,400 -1,397 Descending Boston Center
Wed 10:35:45 AM 42.9322 -74.1103 96° East 242 278 7,600 -1,300 Descending Boston Center
Wed 10:36:15 AM 42.9306 -74.0706 93° East 243 280 7,100 -1,418 Descending Boston Center
Wed 10:36:40 AM 42.9269 -74.0253 96° East 236 272 6,300 -1,900 Descending Boston Center
Wed 10:37:15 AM 42.9236 -73.9769 95° East 233 268 5,200 -1,832 Descending Boston Center
Wed 10:38:15 AM 42.9161 -73.9031 98° East 221 254 3,400 -1,600 Descending Boston Center
Wed 10:39:15 AM 42.8881 -73.8314 118° Southeast 203 234 2,000 -700 Descending Boston Center
Wed 10:40:15 AM 42.8678 -73.7744 116° Southeast 191 220 2,000 -296 Level Boston Center
Wed 10:40:36 AM 42.8278 -73.8103 213° Southwest 155 178 1,600 -805 Descending Boston Center
Wed 10:41:37 AM 42.7861 -73.8094 179° South 135 155 900 -689 Descending Boston Center

Login

Don't have an account? Register now (free) for customized features, flight alerts, and more!